Aérodrome :
LOGIN :

S'inscrire | Disclaimer

   EN    FR    IT 

 










Légende :    VFR   VFR Marginal   IFR   IFR Intensif   IFR Très Intensif
Visi : 
Plafond : 
>= 8 km
>= 3000ft
5 à 8 km
1000 à 3000 ft
1500m à 5 km
500 à 1000 ft
800 à 1500m
200 à 500 ft
< 800m
< 200 ft
Symboles :   Orages  Brouillard  Fortes neiges  Fortes précipitations  Vent > 20 kt
SIGMETs :   Divers  Orages  Givrage  Turbulence  Onde Orograph.  Cendres Volcan.







- Altitude de l'aérodrome : 370 ft


EBBE - Beauvechain AB

DERNIER METAR :
  • 220208Z AUTO 25003KT 4900 FEW065/// 07/05 Q1032 GRN

METARs EXPIRÉS :
  • 220155Z AUTO VRB02KT 5000 FEW065/// 07/05 Q1032 WHT
  • 220125Z AUTO VRB02KT 7000 FEW065/// 08/06 Q1032 WHT
  • 220104Z AUTO VRB01KT 7000 NCD 08/06 Q1032 WHT
  • 220055Z AUTO VRB02KT 8000 NCD 08/06 Q1032 BLU
  • 220051Z AUTO VRB02KT 8000 NCD 08/06 Q1032 BLU
  • 220033Z AUTO VRB01KT 7000 FEW240/// 08/06 Q1032 WHT
  • 212355Z AUTO VRB02KT 6000 NCD 08/05 Q1032 WHT
  • 212325Z AUTO VRB02KT 7000 BKN048/// 09/06 Q1032 WHT

TAF TAF EBBE
Valide du 21 à 19h jusqu'au 22 à 07h UTC


211541Z 2119/2207 26008KT 9999 SCT030 BKN050
BECMG 2121/2123 7000 SCT015 BKN020
TEMPO 2200/2207 3000 -DZ SCT003 BKN010
PROB30
TEMPO 2203/2207 0800 FG SCT001 BKN002
Pas de NOTAMs connus pour ce terrain.



MET'MAP, la Météo Aéronautique d'un coup d'oeil ! - Copyright ORBIFLY Décembre 2007 - Disclaimer

ORBIFLY MET'MAP TEAM :

Programmation & Développement : Alexandra Zaïnal
Conception & Développement : Baudouin d'Aumeries
Co-Programmation & Développement : Marc-Olivier Méhu
Soutien technique & logistique : Manuel Goepfert

Contact : metmap@orbifly.com




SOURCES & CREDITS :

   NOAA